sensor_id;sensor_type;location;lat;lon;timestamp;P1;durP1;ratioP1;P2;durP2;ratioP2
6537;SDS011;3302;52.508;13.454;2023-04-01T00:02:11;6.53;;;3.63;;
6537;SDS011;3302;52.508;13.454;2023-04-01T00:04:36;5.10;;;3.30;;
6537;SDS011;3302;52.508;13.454;2023-04-01T00:07:02;3.87;;;3.10;;
6537;SDS011;3302;52.508;13.454;2023-04-01T00:09:28;4.50;;;3.10;;
6537;SDS011;3302;52.508;13.454;2023-04-01T00:11:53;3.53;;;2.70;;
6537;SDS011;3302;52.508;13.454;2023-04-01T00:14:19;6.47;;;3.97;;
6537;SDS011;3302;52.508;13.454;2023-04-01T00:16:45;5.20;;;3.20;;
6537;SDS011;3302;52.508;13.454;2023-04-01T00:19:11;4.87;;;3.10;;
6537;SDS011;3302;52.508;13.454;2023-04-01T00:21:37;5.10;;;3.20;;
6537;SDS011;3302;52.508;13.454;2023-04-01T00:24:02;5.67;;;3.37;;
6537;SDS011;3302;52.508;13.454;2023-04-01T00:26:28;2.90;;;2.33;;
6537;SDS011;3302;52.508;13.454;2023-04-01T00:28:54;3.90;;;2.83;;
6537;SDS011;3302;52.508;13.454;2023-04-01T00:31:20;3.10;;;2.30;;
6537;SDS011;3302;52.508;13.454;2023-04-01T00:33:46;3.60;;;2.30;;
6537;SDS011;3302;52.508;13.454;2023-04-01T00:36:12;3.47;;;2.03;;
6537;SDS011;3302;52.508;13.454;2023-04-01T00:38:40;7.77;;;4.07;;
6537;SDS011;3302;52.508;13.454;2023-04-01T00:41:07;7.17;;;5.93;;
6537;SDS011;3302;52.508;13.454;2023-04-01T00:43:34;4.00;;;2.70;;
6537;SDS011;3302;52.508;13.454;2023-04-01T00:46:00;5.23;;;2.87;;
6537;SDS011;3302;52.508;13.454;2023-04-01T00:48:30;4.73;;;3.90;;
6537;SDS011;3302;52.508;13.454;2023-04-01T00:51:02;3.93;;;2.73;;
6537;SDS011;3302;52.508;13.454;2023-04-01T00:53:33;2.73;;;2.30;;
6537;SDS011;3302;52.508;13.454;2023-04-01T00:56:09;4.30;;;2.97;;
6537;SDS011;3302;52.508;13.454;2023-04-01T00:58:43;4.67;;;2.50;;
6537;SDS011;3302;52.508;13.454;2023-04-01T01:01:13;5.40;;;2.80;;
6537;SDS011;3302;52.508;13.454;2023-04-01T01:03:39;4.63;;;2.53;;
6537;SDS011;3302;52.508;13.454;2023-04-01T01:08:45;3.30;;;3.00;;
6537;SDS011;3302;52.508;13.454;2023-04-01T01:11:53;4.97;;;3.20;;
6537;SDS011;3302;52.508;13.454;2023-04-01T01:17:11;3.97;;;2.57;;
6537;SDS011;3302;52.508;13.454;2023-04-01T01:25:38;6.27;;;2.70;;
6537;SDS011;3302;52.508;13.454;2023-04-01T01:31:12;6.20;;;3.03;;
6537;SDS011;3302;52.508;13.454;2023-04-01T01:36:33;6.27;;;3.63;;
6537;SDS011;3302;52.508;13.454;2023-04-01T01:39:05;5.50;;;3.10;;
6537;SDS011;3302;52.508;13.454;2023-04-01T01:41:32;4.17;;;2.40;;
6537;SDS011;3302;52.508;13.454;2023-04-01T01:44:01;4.13;;;2.70;;
6537;SDS011;3302;52.508;13.454;2023-04-01T01:46:30;3.93;;;2.30;;
6537;SDS011;3302;52.508;13.454;2023-04-01T01:48:56;3.77;;;2.30;;
6537;SDS011;3302;52.508;13.454;2023-04-01T01:51:24;7.93;;;5.97;;
6537;SDS011;3302;52.508;13.454;2023-04-01T01:53:52;6.53;;;4.40;;
6537;SDS011;3302;52.508;13.454;2023-04-01T01:56:18;4.47;;;2.67;;
6537;SDS011;3302;52.508;13.454;2023-04-01T01:58:48;2.90;;;1.90;;
6537;SDS011;3302;52.508;13.454;2023-04-01T02:01:25;3.77;;;1.90;;
6537;SDS011;3302;52.508;13.454;2023-04-01T02:03:54;3.17;;;2.00;;
6537;SDS011;3302;52.508;13.454;2023-04-01T02:06:22;2.53;;;2.10;;
6537;SDS011;3302;52.508;13.454;2023-04-01T02:08:51;5.17;;;2.57;;
6537;SDS011;3302;52.508;13.454;2023-04-01T02:11:24;3.03;;;2.13;;
6537;SDS011;3302;52.508;13.454;2023-04-01T02:16:27;3.53;;;2.23;;
6537;SDS011;3302;52.508;13.454;2023-04-01T02:18:57;3.37;;;2.10;;
6537;SDS011;3302;52.508;13.454;2023-04-01T02:21:26;4.43;;;2.10;;
6537;SDS011;3302;52.508;13.454;2023-04-01T02:23:56;5.03;;;2.30;;
6537;SDS011;3302;52.508;13.454;2023-04-01T02:26:25;4.17;;;2.13;;
6537;SDS011;3302;52.508;13.454;2023-04-01T02:28:52;4.63;;;2.40;;
6537;SDS011;3302;52.508;13.454;2023-04-01T02:31:19;3.83;;;2.30;;
6537;SDS011;3302;52.508;13.454;2023-04-01T02:33:47;3.17;;;1.90;;
6537;SDS011;3302;52.508;13.454;2023-04-01T02:36:13;2.87;;;1.87;;
6537;SDS011;3302;52.508;13.454;2023-04-01T02:38:41;4.90;;;1.90;;
6537;SDS011;3302;52.508;13.454;2023-04-01T02:41:07;3.50;;;2.27;;
6537;SDS011;3302;52.508;13.454;2023-04-01T02:43:33;3.67;;;2.23;;
6537;SDS011;3302;52.508;13.454;2023-04-01T02:45:59;3.97;;;2.00;;
6537;SDS011;3302;52.508;13.454;2023-04-01T02:48:26;4.00;;;1.90;;
6537;SDS011;3302;52.508;13.454;2023-04-01T02:50:51;4.93;;;1.93;;
6537;SDS011;3302;52.508;13.454;2023-04-01T02:53:17;2.97;;;1.80;;
6537;SDS011;3302;52.508;13.454;2023-04-01T02:55:43;3.77;;;2.10;;
6537;SDS011;3302;52.508;13.454;2023-04-01T02:58:10;2.20;;;1.80;;
6537;SDS011;3302;52.508;13.454;2023-04-01T03:00:36;5.87;;;2.10;;
6537;SDS011;3302;52.508;13.454;2023-04-01T03:03:03;4.80;;;2.50;;
6537;SDS011;3302;52.508;13.454;2023-04-01T03:05:29;5.63;;;3.10;;
6537;SDS011;3302;52.508;13.454;2023-04-01T03:07:55;5.67;;;3.00;;
6537;SDS011;3302;52.508;13.454;2023-04-01T03:10:20;7.67;;;4.30;;
6537;SDS011;3302;52.508;13.454;2023-04-01T03:12:46;6.57;;;3.90;;
6537;SDS011;3302;52.508;13.454;2023-04-01T03:15:12;6.30;;;3.70;;
6537;SDS011;3302;52.508;13.454;2023-04-01T03:17:40;7.10;;;3.23;;
6537;SDS011;3302;52.508;13.454;2023-04-01T03:20:06;4.27;;;2.83;;
6537;SDS011;3302;52.508;13.454;2023-04-01T03:22:34;4.73;;;2.87;;
6537;SDS011;3302;52.508;13.454;2023-04-01T03:25:01;4.00;;;2.80;;
6537;SDS011;3302;52.508;13.454;2023-04-01T03:27:28;4.67;;;2.80;;
6537;SDS011;3302;52.508;13.454;2023-04-01T03:29:53;3.30;;;2.37;;
6537;SDS011;3302;52.508;13.454;2023-04-01T03:32:19;3.83;;;2.40;;
6537;SDS011;3302;52.508;13.454;2023-04-01T03:34:45;5.60;;;3.03;;
6537;SDS011;3302;52.508;13.454;2023-04-01T03:37:11;3.97;;;2.20;;
6537;SDS011;3302;52.508;13.454;2023-04-01T03:39:37;3.73;;;2.30;;
6537;SDS011;3302;52.508;13.454;2023-04-01T03:42:02;4.87;;;2.13;;
6537;SDS011;3302;52.508;13.454;2023-04-01T03:44:32;5.17;;;2.50;;
6537;SDS011;3302;52.508;13.454;2023-04-01T03:46:59;3.37;;;2.40;;
6537;SDS011;3302;52.508;13.454;2023-04-01T03:49:25;2.37;;;2.00;;
6537;SDS011;3302;52.508;13.454;2023-04-01T03:51:51;5.47;;;2.30;;
6537;SDS011;3302;52.508;13.454;2023-04-01T03:54:17;4.23;;;1.90;;
6537;SDS011;3302;52.508;13.454;2023-04-01T03:56:45;4.73;;;2.10;;
6537;SDS011;3302;52.508;13.454;2023-04-01T03:59:11;3.50;;;2.23;;
6537;SDS011;3302;52.508;13.454;2023-04-01T04:01:37;3.90;;;2.37;;
6537;SDS011;3302;52.508;13.454;2023-04-01T04:04:03;4.10;;;2.60;;
6537;SDS011;3302;52.508;13.454;2023-04-01T04:06:29;6.30;;;2.33;;
6537;SDS011;3302;52.508;13.454;2023-04-01T04:08:55;4.37;;;1.90;;
6537;SDS011;3302;52.508;13.454;2023-04-01T04:11:21;3.00;;;2.37;;
6537;SDS011;3302;52.508;13.454;2023-04-01T04:13:47;2.70;;;2.17;;
6537;SDS011;3302;52.508;13.454;2023-04-01T04:16:14;4.00;;;1.87;;
6537;SDS011;3302;52.508;13.454;2023-04-01T04:18:41;3.40;;;2.40;;
6537;SDS011;3302;52.508;13.454;2023-04-01T04:21:10;3.37;;;1.93;;
6537;SDS011;3302;52.508;13.454;2023-04-01T04:23:37;3.90;;;2.30;;
6537;SDS011;3302;52.508;13.454;2023-04-01T04:26:05;4.50;;;2.47;;
6537;SDS011;3302;52.508;13.454;2023-04-01T04:28:32;3.17;;;2.30;;
6537;SDS011;3302;52.508;13.454;2023-04-01T04:30:58;3.37;;;2.47;;
6537;SDS011;3302;52.508;13.454;2023-04-01T04:33:24;5.20;;;2.40;;
6537;SDS011;3302;52.508;13.454;2023-04-01T04:35:50;3.47;;;2.40;;
6537;SDS011;3302;52.508;13.454;2023-04-01T04:38:19;3.73;;;1.93;;
6537;SDS011;3302;52.508;13.454;2023-04-01T04:40:45;4.30;;;2.63;;
6537;SDS011;3302;52.508;13.454;2023-04-01T04:43:12;5.03;;;2.53;;
6537;SDS011;3302;52.508;13.454;2023-04-01T04:45:39;5.20;;;2.60;;
6537;SDS011;3302;52.508;13.454;2023-04-01T04:48:07;3.73;;;2.20;;
6537;SDS011;3302;52.508;13.454;2023-04-01T04:50:34;3.57;;;2.50;;
6537;SDS011;3302;52.508;13.454;2023-04-01T04:53:00;3.77;;;2.50;;
6537;SDS011;3302;52.508;13.454;2023-04-01T04:55:26;3.70;;;2.40;;
6537;SDS011;3302;52.508;13.454;2023-04-01T04:57:52;4.77;;;2.83;;
6537;SDS011;3302;52.508;13.454;2023-04-01T05:00:18;6.33;;;2.60;;
6537;SDS011;3302;52.508;13.454;2023-04-01T05:02:43;4.43;;;2.30;;
6537;SDS011;3302;52.508;13.454;2023-04-01T05:05:09;3.90;;;2.23;;
6537;SDS011;3302;52.508;13.454;2023-04-01T05:07:35;5.53;;;2.57;;
6537;SDS011;3302;52.508;13.454;2023-04-01T05:10:01;3.23;;;2.40;;
6537;SDS011;3302;52.508;13.454;2023-04-01T05:12:27;5.10;;;3.03;;
6537;SDS011;3302;52.508;13.454;2023-04-01T05:14:53;4.90;;;2.40;;
6537;SDS011;3302;52.508;13.454;2023-04-01T05:17:18;4.87;;;2.50;;
6537;SDS011;3302;52.508;13.454;2023-04-01T05:19:44;6.93;;;3.03;;
6537;SDS011;3302;52.508;13.454;2023-04-01T05:22:10;4.57;;;2.97;;
6537;SDS011;3302;52.508;13.454;2023-04-01T05:24:36;5.13;;;2.90;;
6537;SDS011;3302;52.508;13.454;2023-04-01T05:27:01;6.80;;;3.10;;
6537;SDS011;3302;52.508;13.454;2023-04-01T05:29:27;6.00;;;3.20;;
6537;SDS011;3302;52.508;13.454;2023-04-01T05:31:53;6.87;;;3.17;;
6537;SDS011;3302;52.508;13.454;2023-04-01T05:34:19;6.80;;;3.27;;
6537;SDS011;3302;52.508;13.454;2023-04-01T05:36:45;5.70;;;3.00;;
6537;SDS011;3302;52.508;13.454;2023-04-01T05:39:11;6.67;;;3.13;;
6537;SDS011;3302;52.508;13.454;2023-04-01T05:41:37;7.37;;;3.30;;
6537;SDS011;3302;52.508;13.454;2023-04-01T05:44:04;5.80;;;3.17;;
6537;SDS011;3302;52.508;13.454;2023-04-01T05:46:30;4.43;;;2.77;;
6537;SDS011;3302;52.508;13.454;2023-04-01T05:48:57;4.47;;;2.73;;
6537;SDS011;3302;52.508;13.454;2023-04-01T05:51:23;6.03;;;2.93;;
6537;SDS011;3302;52.508;13.454;2023-04-01T05:53:49;5.33;;;2.73;;
6537;SDS011;3302;52.508;13.454;2023-04-01T05:56:14;4.80;;;2.57;;
6537;SDS011;3302;52.508;13.454;2023-04-01T05:58:40;4.60;;;2.80;;
6537;SDS011;3302;52.508;13.454;2023-04-01T06:01:07;4.53;;;3.03;;
6537;SDS011;3302;52.508;13.454;2023-04-01T06:03:34;4.33;;;3.30;;
6537;SDS011;3302;52.508;13.454;2023-04-01T06:06:00;5.77;;;3.10;;
6537;SDS011;3302;52.508;13.454;2023-04-01T06:08:27;6.47;;;3.20;;
6537;SDS011;3302;52.508;13.454;2023-04-01T06:11:07;5.57;;;2.77;;
6537;SDS011;3302;52.508;13.454;2023-04-01T06:16:37;6.80;;;3.20;;
6537;SDS011;3302;52.508;13.454;2023-04-01T06:25:15;5.20;;;2.90;;
6537;SDS011;3302;52.508;13.454;2023-04-01T06:28:00;7.73;;;4.10;;
6537;SDS011;3302;52.508;13.454;2023-04-01T06:33:39;5.47;;;3.30;;
6537;SDS011;3302;52.508;13.454;2023-04-01T06:57:42;7.77;;;4.00;;
6537;SDS011;3302;52.508;13.454;2023-04-01T07:00:13;6.10;;;3.67;;
6537;SDS011;3302;52.508;13.454;2023-04-01T07:02:54;6.50;;;3.87;;
6537;SDS011;3302;52.508;13.454;2023-04-01T07:05:35;4.60;;;3.37;;
6537;SDS011;3302;52.508;13.454;2023-04-01T07:08:03;5.33;;;3.80;;
6537;SDS011;3302;52.508;13.454;2023-04-01T07:10:35;6.70;;;4.37;;
6537;SDS011;3302;52.508;13.454;2023-04-01T07:13:12;7.33;;;4.63;;
6537;SDS011;3302;52.508;13.454;2023-04-01T07:15:43;9.00;;;5.40;;
6537;SDS011;3302;52.508;13.454;2023-04-01T07:18:25;5.87;;;4.60;;
6537;SDS011;3302;52.508;13.454;2023-04-01T07:20:56;9.23;;;5.10;;
6537;SDS011;3302;52.508;13.454;2023-04-01T07:23:36;6.33;;;4.40;;
6537;SDS011;3302;52.508;13.454;2023-04-01T07:26:27;4.77;;;3.90;;
6537;SDS011;3302;52.508;13.454;2023-04-01T07:28:52;7.00;;;3.93;;
6537;SDS011;3302;52.508;13.454;2023-04-01T07:36:42;6.97;;;4.20;;
6537;SDS011;3302;52.508;13.454;2023-04-01T07:50:24;4.70;;;4.13;;
6537;SDS011;3302;52.508;13.454;2023-04-01T07:55:29;6.17;;;4.10;;
6537;SDS011;3302;52.508;13.454;2023-04-01T08:06:14;8.03;;;4.73;;
6537;SDS011;3302;52.508;13.454;2023-04-01T08:08:54;5.47;;;4.20;;
6537;SDS011;3302;52.508;13.454;2023-04-01T08:12:01;7.80;;;4.40;;
6537;SDS011;3302;52.508;13.454;2023-04-01T08:15:11;3.70;;;3.27;;
6537;SDS011;3302;52.508;13.454;2023-04-01T08:17:39;5.50;;;3.10;;
6537;SDS011;3302;52.508;13.454;2023-04-01T08:20:39;4.80;;;3.50;;
6537;SDS011;3302;52.508;13.454;2023-04-01T08:25:48;4.37;;;2.73;;
6537;SDS011;3302;52.508;13.454;2023-04-01T08:28:23;6.13;;;4.10;;
6537;SDS011;3302;52.508;13.454;2023-04-01T08:30:57;7.50;;;4.73;;
6537;SDS011;3302;52.508;13.454;2023-04-01T08:33:28;5.83;;;4.47;;
6537;SDS011;3302;52.508;13.454;2023-04-01T08:38:36;6.50;;;5.43;;
6537;SDS011;3302;52.508;13.454;2023-04-01T08:52:35;7.47;;;6.10;;
6537;SDS011;3302;52.508;13.454;2023-04-01T09:07:06;6.63;;;5.93;;
6537;SDS011;3302;52.508;13.454;2023-04-01T09:32:07;8.10;;;7.20;;
6537;SDS011;3302;52.508;13.454;2023-04-01T09:40:51;8.50;;;7.67;;
6537;SDS011;3302;52.508;13.454;2023-04-01T09:46:11;9.30;;;8.33;;
6537;SDS011;3302;52.508;13.454;2023-04-01T09:49:13;9.77;;;8.87;;
6537;SDS011;3302;52.508;13.454;2023-04-01T10:14:10;8.57;;;7.77;;
6537;SDS011;3302;52.508;13.454;2023-04-01T10:19:49;7.27;;;6.67;;
6537;SDS011;3302;52.508;13.454;2023-04-01T10:23:09;7.77;;;6.97;;
6537;SDS011;3302;52.508;13.454;2023-04-01T10:34:05;6.90;;;6.30;;
6537;SDS011;3302;52.508;13.454;2023-04-01T10:36:48;8.57;;;7.67;;
6537;SDS011;3302;52.508;13.454;2023-04-01T10:39:33;7.07;;;6.47;;
6537;SDS011;3302;52.508;13.454;2023-04-01T10:42:24;7.97;;;7.17;;
6537;SDS011;3302;52.508;13.454;2023-04-01T10:48:29;6.47;;;5.87;;
6537;SDS011;3302;52.508;13.454;2023-04-01T10:51:20;5.80;;;5.20;;
6537;SDS011;3302;52.508;13.454;2023-04-01T11:20:57;3.30;;;3.00;;
6537;SDS011;3302;52.508;13.454;2023-04-01T11:24:03;3.23;;;2.93;;
6537;SDS011;3302;52.508;13.454;2023-04-01T11:26:41;4.50;;;3.23;;
6537;SDS011;3302;52.508;13.454;2023-04-01T11:37:36;3.70;;;3.37;;
6537;SDS011;3302;52.508;13.454;2023-04-01T11:48:11;3.73;;;3.33;;
6537;SDS011;3302;52.508;13.454;2023-04-01T11:56:28;4.13;;;3.50;;
6537;SDS011;3302;52.508;13.454;2023-04-01T12:04:38;4.50;;;3.43;;
6537;SDS011;3302;52.508;13.454;2023-04-01T12:07:30;3.93;;;3.53;;
6537;SDS011;3302;52.508;13.454;2023-04-01T12:10:38;4.20;;;3.80;;
6537;SDS011;3302;52.508;13.454;2023-04-01T12:15:54;4.40;;;4.00;;
6537;SDS011;3302;52.508;13.454;2023-04-01T12:18:38;4.73;;;3.67;;
6537;SDS011;3302;52.508;13.454;2023-04-01T12:32:46;5.33;;;3.97;;
6537;SDS011;3302;52.508;13.454;2023-04-01T12:35:22;4.77;;;4.23;;
6537;SDS011;3302;52.508;13.454;2023-04-01T12:43:05;5.00;;;4.50;;
6537;SDS011;3302;52.508;13.454;2023-04-01T12:50:58;6.40;;;4.70;;
6537;SDS011;3302;52.508;13.454;2023-04-01T12:56:23;4.20;;;3.80;;
6537;SDS011;3302;52.508;13.454;2023-04-01T13:01:59;6.27;;;4.87;;
6537;SDS011;3302;52.508;13.454;2023-04-01T13:25:31;6.80;;;6.10;;
6537;SDS011;3302;52.508;13.454;2023-04-01T13:30:40;5.40;;;4.90;;
6537;SDS011;3302;52.508;13.454;2023-04-01T13:46:51;6.27;;;5.27;;
6537;SDS011;3302;52.508;13.454;2023-04-01T13:52:19;6.80;;;6.20;;
6537;SDS011;3302;52.508;13.454;2023-04-01T13:57:48;5.77;;;5.27;;
6537;SDS011;3302;52.508;13.454;2023-04-01T14:25:28;5.97;;;5.37;;
6537;SDS011;3302;52.508;13.454;2023-04-01T14:28:14;7.27;;;6.57;;
6537;SDS011;3302;52.508;13.454;2023-04-01T14:33:37;6.80;;;6.17;;
6537;SDS011;3302;52.508;13.454;2023-04-01T14:36:28;5.53;;;5.00;;
6537;SDS011;3302;52.508;13.454;2023-04-01T14:42:53;6.33;;;5.70;;
6537;SDS011;3302;52.508;13.454;2023-04-01T14:51:03;5.70;;;5.20;;
6537;SDS011;3302;52.508;13.454;2023-04-01T14:53:43;7.27;;;6.10;;
6537;SDS011;3302;52.508;13.454;2023-04-01T14:56:34;5.57;;;5.03;;
6537;SDS011;3302;52.508;13.454;2023-04-01T14:59:01;7.20;;;6.50;;
6537;SDS011;3302;52.508;13.454;2023-04-01T15:01:33;5.87;;;5.33;;
6537;SDS011;3302;52.508;13.454;2023-04-01T15:04:23;5.27;;;4.80;;
6537;SDS011;3302;52.508;13.454;2023-04-01T15:09:59;7.80;;;5.63;;
6537;SDS011;3302;52.508;13.454;2023-04-01T15:17:55;5.60;;;5.10;;
6537;SDS011;3302;52.508;13.454;2023-04-01T15:20:53;5.80;;;5.30;;
6537;SDS011;3302;52.508;13.454;2023-04-01T15:23:34;5.43;;;4.93;;
6537;SDS011;3302;52.508;13.454;2023-04-01T15:31:43;5.03;;;4.60;;
6537;SDS011;3302;52.508;13.454;2023-04-01T15:39:53;5.50;;;4.90;;
6537;SDS011;3302;52.508;13.454;2023-04-01T15:42:36;5.17;;;4.67;;
6537;SDS011;3302;52.508;13.454;2023-04-01T15:45:30;4.50;;;4.07;;
6537;SDS011;3302;52.508;13.454;2023-04-01T15:48:05;4.40;;;4.00;;
6537;SDS011;3302;52.508;13.454;2023-04-01T15:51:20;4.33;;;3.93;;
6537;SDS011;3302;52.508;13.454;2023-04-01T15:54:06;7.00;;;5.63;;
6537;SDS011;3302;52.508;13.454;2023-04-01T15:57:20;4.23;;;3.83;;
6537;SDS011;3302;52.508;13.454;2023-04-01T16:02:49;4.80;;;4.17;;
6537;SDS011;3302;52.508;13.454;2023-04-01T16:16:39;6.03;;;5.13;;
6537;SDS011;3302;52.508;13.454;2023-04-01T16:22:05;6.37;;;5.20;;
6537;SDS011;3302;52.508;13.454;2023-04-01T16:24:40;5.60;;;5.00;;
6537;SDS011;3302;52.508;13.454;2023-04-01T16:27:16;5.30;;;4.80;;
6537;SDS011;3302;52.508;13.454;2023-04-01T16:32:41;4.73;;;3.67;;
6537;SDS011;3302;52.508;13.454;2023-04-01T16:35:23;6.00;;;4.83;;
6537;SDS011;3302;52.508;13.454;2023-04-01T16:48:45;4.57;;;3.90;;
6537;SDS011;3302;52.508;13.454;2023-04-01T16:51:22;5.67;;;4.90;;
6537;SDS011;3302;52.508;13.454;2023-04-01T16:56:39;5.73;;;4.63;;
6537;SDS011;3302;52.508;13.454;2023-04-01T16:59:18;4.80;;;4.13;;
6537;SDS011;3302;52.508;13.454;2023-04-01T17:06:57;6.17;;;4.40;;
6537;SDS011;3302;52.508;13.454;2023-04-01T17:22:49;6.47;;;5.20;;
6537;SDS011;3302;52.508;13.454;2023-04-01T17:25:38;5.63;;;5.03;;
6537;SDS011;3302;52.508;13.454;2023-04-01T17:31:07;4.50;;;3.77;;
6537;SDS011;3302;52.508;13.454;2023-04-01T17:36:25;5.80;;;4.13;;
6537;SDS011;3302;52.508;13.454;2023-04-01T17:39:10;4.90;;;4.37;;
6537;SDS011;3302;52.508;13.454;2023-04-01T17:42:06;6.40;;;5.00;;
6537;SDS011;3302;52.508;13.454;2023-04-01T17:44:57;5.50;;;4.70;;
6537;SDS011;3302;52.508;13.454;2023-04-01T17:47:41;5.97;;;4.07;;
6537;SDS011;3302;52.508;13.454;2023-04-01T17:56:38;6.23;;;4.47;;
6537;SDS011;3302;52.508;13.454;2023-04-01T18:02:03;9.27;;;6.80;;
6537;SDS011;3302;52.508;13.454;2023-04-01T18:04:46;5.70;;;4.80;;
6537;SDS011;3302;52.508;13.454;2023-04-01T18:23:51;5.07;;;4.07;;
6537;SDS011;3302;52.508;13.454;2023-04-01T18:26:24;4.80;;;4.30;;
6537;SDS011;3302;52.508;13.454;2023-04-01T18:35:02;6.60;;;4.97;;
6537;SDS011;3302;52.508;13.454;2023-04-01T18:38:23;4.43;;;3.93;;
6537;SDS011;3302;52.508;13.454;2023-04-01T18:40:50;4.83;;;3.47;;
6537;SDS011;3302;52.508;13.454;2023-04-01T18:51:48;4.93;;;3.87;;
6537;SDS011;3302;52.508;13.454;2023-04-01T18:57:13;5.57;;;4.37;;
6537;SDS011;3302;52.508;13.454;2023-04-01T18:59:51;5.67;;;4.23;;
6537;SDS011;3302;52.508;13.454;2023-04-01T19:07:52;6.20;;;5.13;;
6537;SDS011;3302;52.508;13.454;2023-04-01T19:13:33;6.53;;;5.43;;
6537;SDS011;3302;52.508;13.454;2023-04-01T19:27:22;7.23;;;5.00;;
6537;SDS011;3302;52.508;13.454;2023-04-01T19:35:58;5.67;;;4.50;;
6537;SDS011;3302;52.508;13.454;2023-04-01T19:38:40;6.27;;;4.47;;
6537;SDS011;3302;52.508;13.454;2023-04-01T19:44:09;7.40;;;5.20;;
6537;SDS011;3302;52.508;13.454;2023-04-01T19:46:49;8.67;;;5.23;;
6537;SDS011;3302;52.508;13.454;2023-04-01T19:49:33;9.73;;;5.67;;
6537;SDS011;3302;52.508;13.454;2023-04-01T19:52:30;10.53;;;7.90;;
6537;SDS011;3302;52.508;13.454;2023-04-01T19:55:09;8.43;;;6.20;;
6537;SDS011;3302;52.508;13.454;2023-04-01T20:00:59;8.73;;;4.20;;
6537;SDS011;3302;52.508;13.454;2023-04-01T20:11:26;9.70;;;5.73;;
6537;SDS011;3302;52.508;13.454;2023-04-01T20:19:35;10.77;;;6.00;;
6537;SDS011;3302;52.508;13.454;2023-04-01T20:22:04;8.07;;;6.03;;
6537;SDS011;3302;52.508;13.454;2023-04-01T20:24:44;8.63;;;5.60;;
6537;SDS011;3302;52.508;13.454;2023-04-01T20:27:22;9.73;;;6.00;;
6537;SDS011;3302;52.508;13.454;2023-04-01T20:30:12;7.87;;;6.07;;
6537;SDS011;3302;52.508;13.454;2023-04-01T20:33:10;8.47;;;5.53;;
6537;SDS011;3302;52.508;13.454;2023-04-01T21:04:22;7.47;;;4.50;;
6537;SDS011;3302;52.508;13.454;2023-04-01T21:09:51;6.20;;;4.60;;
6537;SDS011;3302;52.508;13.454;2023-04-01T21:15:39;5.30;;;4.30;;
6537;SDS011;3302;52.508;13.454;2023-04-01T21:29:16;5.63;;;4.47;;
6537;SDS011;3302;52.508;13.454;2023-04-01T21:34:32;6.83;;;3.90;;
6537;SDS011;3302;52.508;13.454;2023-04-01T21:42:42;6.43;;;3.80;;
6537;SDS011;3302;52.508;13.454;2023-04-01T21:48:33;6.10;;;4.10;;
6537;SDS011;3302;52.508;13.454;2023-04-01T21:51:25;4.80;;;3.67;;
6537;SDS011;3302;52.508;13.454;2023-04-01T21:54:22;6.07;;;4.10;;
6537;SDS011;3302;52.508;13.454;2023-04-01T22:00:18;4.50;;;3.67;;
6537;SDS011;3302;52.508;13.454;2023-04-01T22:11:30;6.87;;;3.73;;
6537;SDS011;3302;52.508;13.454;2023-04-01T22:14:32;4.73;;;3.60;;
6537;SDS011;3302;52.508;13.454;2023-04-01T22:17:36;6.77;;;3.40;;
6537;SDS011;3302;52.508;13.454;2023-04-01T22:28:09;4.77;;;3.83;;
6537;SDS011;3302;52.508;13.454;2023-04-01T22:30:42;5.43;;;3.50;;
6537;SDS011;3302;52.508;13.454;2023-04-01T22:33:21;7.13;;;3.60;;
6537;SDS011;3302;52.508;13.454;2023-04-01T22:36:22;3.63;;;2.87;;
6537;SDS011;3302;52.508;13.454;2023-04-01T22:42:27;5.23;;;3.40;;
6537;SDS011;3302;52.508;13.454;2023-04-01T22:45:05;4.97;;;3.30;;
6537;SDS011;3302;52.508;13.454;2023-04-01T22:53:45;5.13;;;3.43;;
6537;SDS011;3302;52.508;13.454;2023-04-01T22:56:35;4.50;;;3.30;;
6537;SDS011;3302;52.508;13.454;2023-04-01T22:59:26;4.57;;;3.17;;
6537;SDS011;3302;52.508;13.454;2023-04-01T23:02:13;3.67;;;2.90;;
6537;SDS011;3302;52.508;13.454;2023-04-01T23:04:42;4.00;;;2.53;;
6537;SDS011;3302;52.508;13.454;2023-04-01T23:10:27;4.57;;;3.00;;
6537;SDS011;3302;52.508;13.454;2023-04-01T23:12:57;4.73;;;3.00;;
6537;SDS011;3302;52.508;13.454;2023-04-01T23:15:25;4.07;;;3.27;;
6537;SDS011;3302;52.508;13.454;2023-04-01T23:29:46;3.80;;;3.00;;
6537;SDS011;3302;52.508;13.454;2023-04-01T23:32:15;6.17;;;3.20;;
6537;SDS011;3302;52.508;13.454;2023-04-01T23:34:50;5.30;;;3.00;;
6537;SDS011;3302;52.508;13.454;2023-04-01T23:37:18;6.97;;;3.23;;
6537;SDS011;3302;52.508;13.454;2023-04-01T23:39:49;5.03;;;3.10;;
6537;SDS011;3302;52.508;13.454;2023-04-01T23:42:42;5.60;;;3.23;;
6537;SDS011;3302;52.508;13.454;2023-04-01T23:45:14;4.07;;;3.13;;
6537;SDS011;3302;52.508;13.454;2023-04-01T23:47:43;5.50;;;3.40;;
6537;SDS011;3302;52.508;13.454;2023-04-01T23:50:13;7.00;;;3.17;;
6537;SDS011;3302;52.508;13.454;2023-04-01T23:52:48;3.20;;;2.73;;
6537;SDS011;3302;52.508;13.454;2023-04-01T23:55:22;4.07;;;3.00;;
